Tasso Fragoso, Brazil
Current Conditions -  °F | °C
As of 9:00 AM on Friday 28 Nov 2014 (Local Time) from SBPJ Reporting Station
Broken Clouds Broken Clouds  
Wind Chill: 79°   Ceiling: 2500
Heat Index: 82°   Visibility: 6mi
Dew Point: 72°   Wind: 7mph
Humidity: 78%   Direction: 240°WSW
Pressure: 29.97"   Gusts: NA
Location:  8.48°S, 45.74°W
Report Text: SBPJ 281200Z 24006KT 9999 BKN025 26/22 Q1015
Loading
Personal Weather Stations






























Interactive Weather Map New forecast layout! Learn more

10-Day Weather Forecast

Advertisements
Track Severe Weather on mobile